Ms-hammaritha — PF2437 — position and weather

sailwx.info

Track history (hours):
 
Tides and Currents Weather Stations Pressure Air Temp Water Temp Dewpoint Dewpoint Depression Visibility Wind Speed Wind Dir Waves Ship Positions

Ms-hammaritha

Last reported at 2014-Dec-19 06:33 UTC. Time now 2014-Dec-19 07:15 UTC.
Position N 51°47' E 005°06'.

Length 86 m.

Type: Ship. MMSI: 244700691.

Date/timePositionNaut miles runAvg speedWind from/ knotsBaromVisibWave heightAir tempDewpointWater temp
2014-Dec-19 06:33N 51°47' E 005°06'0 0.0
2014-Dec-19 05:33N 51°47' E 005°06'0 0.0
2014-Dec-19 04:29N 51°47' E 005°06'0 0.0
2014-Dec-19 03:33N 51°47' E 005°06'0 0.0
2014-Dec-19 02:33N 51°47' E 005°06'0 0.0
2014-Dec-19 01:33N 51°47' E 005°06'0 0.0
2014-Dec-19 00:33N 51°47' E 005°06'0 0.0
2014-Dec-18 23:33N 51°47' E 005°06'0 0.0
2014-Dec-18 22:33N 51°47' E 005°06'0 0.0
2014-Dec-18 21:34N 51°47' E 005°06'1 1.0
2014-Dec-18 20:33N 51°47' E 005°07'4 4.3
2014-Dec-18 19:32N 51°43' E 005°04'6 5.8
2014-Dec-18 18:33N 51°43' E 004°55'6 6.2
2014-Dec-18 17:33N 51°44' E 004°45'7 6.5
2014-Dec-18 16:33N 51°42' E 004°34'1 1.0
2014-Dec-18 15:28N 51°41' E 004°35'1 0.4
2014-Dec-18 12:07N 51°42' E 004°35'1 0.5
2014-Dec-18 10:30N 51°42' E 004°37'1 1.0
2014-Dec-18 09:33N 51°42' E 004°36'7 7.1
2014-Dec-18 08:33N 51°42' E 004°25'6 5.2
2014-Dec-18 07:25N 51°39' E 004°17'5 5.7
2014-Dec-18 06:32N 51°34' E 004°13'7 7.2
2014-Dec-18 05:33N 51°27' E 004°14'1 0.9
2014-Dec-18 04:27N 51°26' E 004°14'0 0.0
2014-Dec-18 03:32N 51°26' E 004°14'0 0.0
2014-Dec-18 02:30N 51°26' E 004°14'0 0.0
2014-Dec-18 01:30N 51°26' E 004°14'0 0.0
2014-Dec-18 00:29N 51°26' E 004°14'0 0.0
2014-Dec-17 23:28N 51°26' E 004°14'0 0.0
2014-Dec-17 22:14N 51°26' E 004°14'0 0.0
2014-Dec-17 21:17N 51°26' E 004°14'0 0.0
2014-Dec-17 20:33N 51°26' E 004°14'0 0.0
2014-Dec-17 19:22N 51°26' E 004°14'3 2.8
2014-Dec-17 18:27N 51°24' E 004°15'6 7.0
2014-Dec-17 17:32N 51°18' E 004°20'6 6.2
2014-Dec-17 16:33N 51°14' E 004°27'0 0.1
2014-Dec-17 15:33N 51°14' E 004°27'0 0.0
2014-Dec-17 14:33N 51°14' E 004°27'0 0.0
2014-Dec-17 13:33N 51°14' E 004°27'0 0.0
2014-Dec-17 12:33N 51°14' E 004°27'0 0.0
2014-Dec-17 11:33N 51°14' E 004°27'0 0.0
2014-Dec-17 10:33N 51°14' E 004°27'0 0.0
2014-Dec-17 09:34N 51°14' E 004°27'0 0.0
2014-Dec-17 08:32N 51°14' E 004°27'0 0.0
2014-Dec-17 07:33N 51°14' E 004°27'0 0.0
2014-Dec-17 06:33N 51°14' E 004°27'0 0.0
2014-Dec-17 05:33N 51°14' E 004°27'0 0.0
2014-Dec-17 04:33N 51°14' E 004°27'0 0.0
2014-Dec-17 03:33N 51°14' E 004°27'0 0.0
2014-Dec-17 02:33N 51°14' E 004°27'0 0.0
2014-Dec-17 01:33N 51°14' E 004°27'0 0.0
2014-Dec-17 00:33N 51°14' E 004°27'0 0.0
2014-Dec-16 23:33N 51°14' E 004°27'0 0.0
2014-Dec-16 22:33N 51°14' E 004°27'0 0.0
2014-Dec-16 21:34N 51°14' E 004°27'0 0.0
2014-Dec-16 20:33N 51°14' E 004°27'0 0.0
2014-Dec-16 19:33N 51°14' E 004°27'0 0.0
2014-Dec-16 18:33N 51°14' E 004°27'0 0.0
2014-Dec-16 17:34N 51°14' E 004°27'0 0.0
2014-Dec-16 16:33N 51°14' E 004°27'0 0.0
2014-Dec-16 15:34N 51°14' E 004°27'0 0.0
2014-Dec-16 14:33N 51°14' E 004°27'0 0.0
2014-Dec-16 13:34N 51°14' E 004°27'0 0.0
2014-Dec-16 12:32N 51°14' E 004°27'0 0.0
2014-Dec-16 11:33N 51°14' E 004°27'0 0.0
2014-Dec-16 10:34N 51°14' E 004°27'0 0.0
2014-Dec-16 09:33N 51°14' E 004°27'0 0.0
2014-Dec-16 08:33N 51°14' E 004°27'0 0.0
2014-Dec-16 07:34N 51°14' E 004°27'0 0.0
2014-Dec-16 06:33N 51°14' E 004°27'0 0.0
2014-Dec-16 05:34N 51°14' E 004°27'0 0.0
2014-Dec-16 04:33N 51°14' E 004°27'0 0.0
2014-Dec-16 03:33N 51°14' E 004°27'0 0.0
2014-Dec-16 02:33N 51°14' E 004°27'0 0.0
2014-Dec-16 01:26N 51°14' E 004°27'0 0.0
2014-Dec-16 00:31N 51°14' E 004°27'0 0.0
2014-Dec-15 23:34N 51°14' E 004°27'0 0.0
2014-Dec-15 22:33N 51°14' E 004°27'0 0.0
2014-Dec-15 21:34N 51°14' E 004°27'0 0.0
2014-Dec-15 20:33N 51°14' E 004°27'0 0.0
2014-Dec-15 19:33N 51°14' E 004°27'0 0.1
2014-Dec-15 18:33N 51°14' E 004°27'0 0.0
2014-Dec-15 17:33N 51°14' E 004°27'0 0.0
2014-Dec-15 16:34N 51°14' E 004°27'0 0.0
2014-Dec-15 15:33N 51°14' E 004°27'0 0.0
2014-Dec-15 14:33N 51°14' E 004°27'0 0.0
2014-Dec-15 13:34N 51°14' E 004°27'0 0.0
2014-Dec-15 12:33N 51°14' E 004°27'0 0.0
2014-Dec-15 11:34N 51°14' E 004°27'0 0.0
2014-Dec-15 10:34N 51°14' E 004°27'0 0.0
2014-Dec-15 09:34N 51°14' E 004°27'0 0.0
2014-Dec-15 08:33N 51°14' E 004°27'0 0.0
2014-Dec-15 07:33N 51°14' E 004°27'0 0.0
2014-Dec-15 06:34N 51°14' E 004°27'0 0.0
2014-Dec-15 05:33N 51°14' E 004°27'0 0.0
2014-Dec-15 04:33N 51°14' E 004°27'0 0.0
2014-Dec-15 03:33N 51°14' E 004°27'0 0.0
2014-Dec-15 02:34N 51°14' E 004°27'0 0.0
2014-Dec-15 01:34N 51°14' E 004°27'0 0.0
2014-Dec-15 00:33N 51°14' E 004°27'0 0.0
2014-Dec-14 23:34N 51°14' E 004°27'0 0.0
2014-Dec-14 22:33N 51°14' E 004°27'0 0.0
2014-Dec-14 21:33N 51°14' E 004°27'0 0.0
2014-Dec-14 20:33N 51°14' E 004°27'0 0.0
2014-Dec-14 19:34N 51°14' E 004°27'0 0.0
2014-Dec-14 18:34N 51°14' E 004°27'0 0.0
2014-Dec-14 17:34N 51°14' E 004°27'0 0.0
2014-Dec-14 16:34N 51°14' E 004°27'0 0.0
2014-Dec-14 15:34N 51°14' E 004°27'0 0.0
2014-Dec-14 14:33N 51°14' E 004°27'0 0.0
2014-Dec-14 13:34N 51°14' E 004°27'0 0.0
2014-Dec-14 12:34N 51°14' E 004°27'0 0.0
2014-Dec-14 11:34N 51°14' E 004°27'0 0.0
2014-Dec-14 10:34N 51°14' E 004°27'0 0.0
2014-Dec-14 09:34N 51°14' E 004°27'0 0.0
2014-Dec-14 08:34N 51°14' E 004°27'0 0.0
2014-Dec-14 07:33N 51°14' E 004°27'0 0.0
2014-Dec-14 06:34N 51°14' E 004°27'0 0.0
2014-Dec-14 05:34N 51°14' E 004°27'0 0.0
2014-Dec-14 04:33N 51°14' E 004°27'0 0.0
2014-Dec-14 03:34N 51°14' E 004°27'0 0.0
2014-Dec-14 02:34N 51°14' E 004°27'0 0.0
2014-Dec-14 01:34N 51°14' E 004°27'0 0.0
2014-Dec-14 00:34N 51°14' E 004°27'0 0.0
2014-Dec-13 23:33N 51°14' E 004°27'0 0.0
2014-Dec-13 22:33N 51°14' E 004°27'0 0.0
2014-Dec-13 21:33N 51°14' E 004°27'0 0.0
2014-Dec-13 20:34N 51°14' E 004°27'0 0.0
2014-Dec-13 19:33N 51°14' E 004°27'0 0.0
2014-Dec-13 18:33N 51°14' E 004°27'0 0.0
2014-Dec-13 17:33N 51°14' E 004°27'0 0.0
2014-Dec-13 16:34N 51°14' E 004°27'0 0.0
2014-Dec-13 15:34N 51°14' E 004°27'0 0.0
2014-Dec-13 14:34N 51°14' E 004°27'0 0.0
2014-Dec-13 13:33N 51°14' E 004°27'0 0.0
2014-Dec-13 12:34N 51°14' E 004°27'1 1.5
2014-Dec-13 11:34N 51°15' E 004°25'6 5.9
2014-Dec-13 10:33N 51°19' E 004°19'7 6.3
2014-Dec-13 09:28N 51°25' E 004°14'4 4.5
2014-Dec-13 08:33N 51°29' E 004°13'7 6.7
2014-Dec-13 07:33N 51°36' E 004°11'7 6.6
2014-Dec-13 06:33N 51°40' E 004°20'4 3.8
2014-Dec-13 05:30N 51°42' E 004°26'1 0.9
2014-Dec-13 04:31N 51°42' E 004°27'0 0.0
2014-Dec-13 03:10N 51°42' E 004°27'0 0.0
2014-Dec-13 02:23N 51°42' E 004°27'0 0.0
2014-Dec-13 01:33N 51°42' E 004°27'0 0.0
2014-Dec-13 00:30N 51°42' E 004°27'0 0.0
2014-Dec-12 23:30N 51°42' E 004°27'0 0.0
2014-Dec-12 22:28N 51°42' E 004°27'0 0.1
2014-Dec-12 21:32N 51°42' E 004°27'6 6.6
2014-Dec-12 20:33N 51°43' E 004°37'7 6.9
2014-Dec-12 19:33N 51°47' E 004°46'7 7.1
2014-Dec-12 18:33N 51°50' E 004°57'8 7.7
2014-Dec-12 17:33N 51°49' E 005°09'8 7.9
2014-Dec-12 16:33N 51°48' E 005°22'8 8.0
2014-Dec-12 15:33N 51°54' E 005°32'8 6.1
2014-Dec-12 14:19N 51°53' E 005°44'52 5.9
2014-Dec-12 05:33N 51°16' E 006°42'5 5.4
2014-Dec-12 04:33N 51°11' E 006°45'0 0.2
2014-Dec-12 03:33N 51°11' E 006°45'0 0.0
2014-Dec-12 02:33N 51°11' E 006°45'0 0.0
2014-Dec-12 01:33N 51°11' E 006°45'0 0.0
2014-Dec-12 00:33N 51°11' E 006°45'0 0.0
2014-Dec-11 23:33N 51°11' E 006°45'0 0.0
2014-Dec-11 22:33N 51°11' E 006°45'3 2.8
2014-Dec-11 21:33N 51°09' E 006°48'15 6.2
2014-Dec-11 19:09N 50°55' E 006°58'81 3.6
2014-Dec-10 20:33N 50°06' E 008°39'4 4.4
2014-Dec-10 19:33N 50°06' E 008°46'4 4.0
2014-Dec-10 18:33N 50°07' E 008°52'4 4.2
2014-Dec-10 17:33N 50°05' E 008°57'3 2.9
2014-Dec-10 16:33N 50°03' E 009°01'4 3.8
2014-Dec-10 15:30N 49°59' E 009°04'  
Track history (hours):
 
Tides and Currents Weather Stations Pressure Air Temp Water Temp Dewpoint Dewpoint Depression Visibility Wind Speed Wind Dir Waves Ship Positions

Ms-hammaritha

Last reported at 2014-Dec-19 06:33 UTC. Time now 2014-Dec-19 07:15 UTC.
Position N 51°47' E 005°06'.

Length 86 m.

Type: Ship. MMSI: 244700691.

Date/timePositionNaut miles runAvg speedWind from/ knotsBaromVisibWave heightAir tempDewpointWater temp
2014-Dec-19 06:33N 51°47' E 005°06'0 0.0
2014-Dec-19 05:33N 51°47' E 005°06'0 0.0
2014-Dec-19 04:29N 51°47' E 005°06'0 0.0
2014-Dec-19 03:33N 51°47' E 005°06'0 0.0
2014-Dec-19 02:33N 51°47' E 005°06'0 0.0
2014-Dec-19 01:33N 51°47' E 005°06'0 0.0
2014-Dec-19 00:33N 51°47' E 005°06'0 0.0
2014-Dec-18 23:33N 51°47' E 005°06'0 0.0
2014-Dec-18 22:33N 51°47' E 005°06'0 0.0
2014-Dec-18 21:34N 51°47' E 005°06'1 1.0
2014-Dec-18 20:33N 51°47' E 005°07'4 4.3
2014-Dec-18 19:32N 51°43' E 005°04'6 5.8
2014-Dec-18 18:33N 51°43' E 004°55'6 6.2
2014-Dec-18 17:33N 51°44' E 004°45'7 6.5
2014-Dec-18 16:33N 51°42' E 004°34'1 1.0
2014-Dec-18 15:28N 51°41' E 004°35'1 0.4
2014-Dec-18 12:07N 51°42' E 004°35'1 0.5
2014-Dec-18 10:30N 51°42' E 004°37'1 1.0
2014-Dec-18 09:33N 51°42' E 004°36'7 7.1
2014-Dec-18 08:33N 51°42' E 004°25'6 5.2
2014-Dec-18 07:25N 51°39' E 004°17'5 5.7
2014-Dec-18 06:32N 51°34' E 004°13'7 7.2
2014-Dec-18 05:33N 51°27' E 004°14'1 0.9
2014-Dec-18 04:27N 51°26' E 004°14'0 0.0
2014-Dec-18 03:32N 51°26' E 004°14'0 0.0
2014-Dec-18 02:30N 51°26' E 004°14'0 0.0
2014-Dec-18 01:30N 51°26' E 004°14'0 0.0
2014-Dec-18 00:29N 51°26' E 004°14'0 0.0
2014-Dec-17 23:28N 51°26' E 004°14'0 0.0
2014-Dec-17 22:14N 51°26' E 004°14'0 0.0
2014-Dec-17 21:17N 51°26' E 004°14'0 0.0
2014-Dec-17 20:33N 51°26' E 004°14'0 0.0
2014-Dec-17 19:22N 51°26' E 004°14'3 2.8
2014-Dec-17 18:27N 51°24' E 004°15'6 7.0
2014-Dec-17 17:32N 51°18' E 004°20'6 6.2
2014-Dec-17 16:33N 51°14' E 004°27'0 0.1
2014-Dec-17 15:33N 51°14' E 004°27'0 0.0
2014-Dec-17 14:33N 51°14' E 004°27'0 0.0
2014-Dec-17 13:33N 51°14' E 004°27'0 0.0
2014-Dec-17 12:33N 51°14' E 004°27'0 0.0
2014-Dec-17 11:33N 51°14' E 004°27'0 0.0
2014-Dec-17 10:33N 51°14' E 004°27'0 0.0
2014-Dec-17 09:34N 51°14' E 004°27'0 0.0
2014-Dec-17 08:32N 51°14' E 004°27'0 0.0
2014-Dec-17 07:33N 51°14' E 004°27'0 0.0
2014-Dec-17 06:33N 51°14' E 004°27'0 0.0
2014-Dec-17 05:33N 51°14' E 004°27'0 0.0
2014-Dec-17 04:33N 51°14' E 004°27'0 0.0
2014-Dec-17 03:33N 51°14' E 004°27'0 0.0
2014-Dec-17 02:33N 51°14' E 004°27'0 0.0
2014-Dec-17 01:33N 51°14' E 004°27'0 0.0
2014-Dec-17 00:33N 51°14' E 004°27'0 0.0
2014-Dec-16 23:33N 51°14' E 004°27'0 0.0
2014-Dec-16 22:33N 51°14' E 004°27'0 0.0
2014-Dec-16 21:34N 51°14' E 004°27'0 0.0
2014-Dec-16 20:33N 51°14' E 004°27'0 0.0
2014-Dec-16 19:33N 51°14' E 004°27'0 0.0
2014-Dec-16 18:33N 51°14' E 004°27'0 0.0
2014-Dec-16 17:34N 51°14' E 004°27'0 0.0
2014-Dec-16 16:33N 51°14' E 004°27'0 0.0
2014-Dec-16 15:34N 51°14' E 004°27'0 0.0
2014-Dec-16 14:33N 51°14' E 004°27'0 0.0
2014-Dec-16 13:34N 51°14' E 004°27'0 0.0
2014-Dec-16 12:32N 51°14' E 004°27'0 0.0
2014-Dec-16 11:33N 51°14' E 004°27'0 0.0
2014-Dec-16 10:34N 51°14' E 004°27'0 0.0
2014-Dec-16 09:33N 51°14' E 004°27'0 0.0
2014-Dec-16 08:33N 51°14' E 004°27'0 0.0
2014-Dec-16 07:34N 51°14' E 004°27'0 0.0
2014-Dec-16 06:33N 51°14' E 004°27'0 0.0
2014-Dec-16 05:34N 51°14' E 004°27'0 0.0
2014-Dec-16 04:33N 51°14' E 004°27'0 0.0
2014-Dec-16 03:33N 51°14' E 004°27'0 0.0
2014-Dec-16 02:33N 51°14' E 004°27'0 0.0
2014-Dec-16 01:26N 51°14' E 004°27'0 0.0
2014-Dec-16 00:31N 51°14' E 004°27'0 0.0
2014-Dec-15 23:34N 51°14' E 004°27'0 0.0
2014-Dec-15 22:33N 51°14' E 004°27'0 0.0
2014-Dec-15 21:34N 51°14' E 004°27'0 0.0
2014-Dec-15 20:33N 51°14' E 004°27'0 0.0
2014-Dec-15 19:33N 51°14' E 004°27'0 0.1
2014-Dec-15 18:33N 51°14' E 004°27'0 0.0
2014-Dec-15 17:33N 51°14' E 004°27'0 0.0
2014-Dec-15 16:34N 51°14' E 004°27'0 0.0
2014-Dec-15 15:33N 51°14' E 004°27'0 0.0
2014-Dec-15 14:33N 51°14' E 004°27'0 0.0
2014-Dec-15 13:34N 51°14' E 004°27'0 0.0
2014-Dec-15 12:33N 51°14' E 004°27'0 0.0
2014-Dec-15 11:34N 51°14' E 004°27'0 0.0
2014-Dec-15 10:34N 51°14' E 004°27'0 0.0
2014-Dec-15 09:34N 51°14' E 004°27'0 0.0
2014-Dec-15 08:33N 51°14' E 004°27'0 0.0
2014-Dec-15 07:33N 51°14' E 004°27'0 0.0
2014-Dec-15 06:34N 51°14' E 004°27'0 0.0
2014-Dec-15 05:33N 51°14' E 004°27'0 0.0
2014-Dec-15 04:33N 51°14' E 004°27'0 0.0
2014-Dec-15 03:33N 51°14' E 004°27'0 0.0
2014-Dec-15 02:34N 51°14' E 004°27'0 0.0
2014-Dec-15 01:34N 51°14' E 004°27'0 0.0
2014-Dec-15 00:33N 51°14' E 004°27'0 0.0
2014-Dec-14 23:34N 51°14' E 004°27'0 0.0
2014-Dec-14 22:33N 51°14' E 004°27'0 0.0
2014-Dec-14 21:33N 51°14' E 004°27'0 0.0
2014-Dec-14 20:33N 51°14' E 004°27'0 0.0
2014-Dec-14 19:34N 51°14' E 004°27'0 0.0
2014-Dec-14 18:34N 51°14' E 004°27'0 0.0
2014-Dec-14 17:34N 51°14' E 004°27'0 0.0
2014-Dec-14 16:34N 51°14' E 004°27'0 0.0
2014-Dec-14 15:34N 51°14' E 004°27'0 0.0
2014-Dec-14 14:33N 51°14' E 004°27'0 0.0
2014-Dec-14 13:34N 51°14' E 004°27'0 0.0
2014-Dec-14 12:34N 51°14' E 004°27'0 0.0
2014-Dec-14 11:34N 51°14' E 004°27'0 0.0
2014-Dec-14 10:34N 51°14' E 004°27'0 0.0
2014-Dec-14 09:34N 51°14' E 004°27'0 0.0
2014-Dec-14 08:34N 51°14' E 004°27'0 0.0
2014-Dec-14 07:33N 51°14' E 004°27'0 0.0
2014-Dec-14 06:34N 51°14' E 004°27'0 0.0
2014-Dec-14 05:34N 51°14' E 004°27'0 0.0
2014-Dec-14 04:33N 51°14' E 004°27'0 0.0
2014-Dec-14 03:34N 51°14' E 004°27'0 0.0
2014-Dec-14 02:34N 51°14' E 004°27'0 0.0
2014-Dec-14 01:34N 51°14' E 004°27'0 0.0
2014-Dec-14 00:34N 51°14' E 004°27'0 0.0
2014-Dec-13 23:33N 51°14' E 004°27'0 0.0
2014-Dec-13 22:33N 51°14' E 004°27'0 0.0
2014-Dec-13 21:33N 51°14' E 004°27'0 0.0
2014-Dec-13 20:34N 51°14' E 004°27'0 0.0
2014-Dec-13 19:33N 51°14' E 004°27'0 0.0
2014-Dec-13 18:33N 51°14' E 004°27'0 0.0
2014-Dec-13 17:33N 51°14' E 004°27'0 0.0
2014-Dec-13 16:34N 51°14' E 004°27'0 0.0
2014-Dec-13 15:34N 51°14' E 004°27'0 0.0
2014-Dec-13 14:34N 51°14' E 004°27'0 0.0
2014-Dec-13 13:33N 51°14' E 004°27'0 0.0
2014-Dec-13 12:34N 51°14' E 004°27'1 1.5
2014-Dec-13 11:34N 51°15' E 004°25'6 5.9
2014-Dec-13 10:33N 51°19' E 004°19'7 6.3
2014-Dec-13 09:28N 51°25' E 004°14'4 4.5
2014-Dec-13 08:33N 51°29' E 004°13'7 6.7
2014-Dec-13 07:33N 51°36' E 004°11'7 6.6
2014-Dec-13 06:33N 51°40' E 004°20'4 3.8
2014-Dec-13 05:30N 51°42' E 004°26'1 0.9
2014-Dec-13 04:31N 51°42' E 004°27'0 0.0
2014-Dec-13 03:10N 51°42' E 004°27'0 0.0
2014-Dec-13 02:23N 51°42' E 004°27'0 0.0
2014-Dec-13 01:33N 51°42' E 004°27'0 0.0
2014-Dec-13 00:30N 51°42' E 004°27'0 0.0
2014-Dec-12 23:30N 51°42' E 004°27'0 0.0
2014-Dec-12 22:28N 51°42' E 004°27'0 0.1
2014-Dec-12 21:32N 51°42' E 004°27'6 6.6
2014-Dec-12 20:33N 51°43' E 004°37'7 6.9
2014-Dec-12 19:33N 51°47' E 004°46'7 7.1
2014-Dec-12 18:33N 51°50' E 004°57'8 7.7
2014-Dec-12 17:33N 51°49' E 005°09'8 7.9
2014-Dec-12 16:33N 51°48' E 005°22'8 8.0
2014-Dec-12 15:33N 51°54' E 005°32'8 6.1
2014-Dec-12 14:19N 51°53' E 005°44'52 5.9
2014-Dec-12 05:33N 51°16' E 006°42'5 5.4
2014-Dec-12 04:33N 51°11' E 006°45'0 0.2
2014-Dec-12 03:33N 51°11' E 006°45'0 0.0
2014-Dec-12 02:33N 51°11' E 006°45'0 0.0
2014-Dec-12 01:33N 51°11' E 006°45'0 0.0
2014-Dec-12 00:33N 51°11' E 006°45'0 0.0
2014-Dec-11 23:33N 51°11' E 006°45'0 0.0
2014-Dec-11 22:33N 51°11' E 006°45'3 2.8
2014-Dec-11 21:33N 51°09' E 006°48'15 6.2
2014-Dec-11 19:09N 50°55' E 006°58'81 3.6
2014-Dec-10 20:33N 50°06' E 008°39'4 4.4
2014-Dec-10 19:33N 50°06' E 008°46'4 4.0
2014-Dec-10 18:33N 50°07' E 008°52'4 4.2
2014-Dec-10 17:33N 50°05' E 008°57'3 2.9
2014-Dec-10 16:33N 50°03' E 009°01'4 3.8
2014-Dec-10 15:30N 49°59' E 009°04'  

Dump ship's entire track history